sensor_id;sensor_type;location;lat;lon;timestamp;pressure;altitude;pressure_sealevel;temperature
35582;BMP180;21687;48.900;9.188;2022-09-09T00:04:15;98072.00;;;13.70
35582;BMP180;21687;48.900;9.188;2022-09-09T00:13:18;98070.00;;;14.00
35582;BMP180;21687;48.900;9.188;2022-09-09T00:16:22;98074.00;;;14.20
35582;BMP180;21687;48.900;9.188;2022-09-09T00:22:38;98066.00;;;14.20
35582;BMP180;21687;48.900;9.188;2022-09-09T00:28:41;98071.00;;;14.20
35582;BMP180;21687;48.900;9.188;2022-09-09T00:31:32;98061.00;;;14.20
35582;BMP180;21687;48.900;9.188;2022-09-09T00:34:23;98070.00;;;14.30
35582;BMP180;21687;48.900;9.188;2022-09-09T00:37:10;98062.00;;;14.30
35582;BMP180;21687;48.900;9.188;2022-09-09T00:40:00;98057.00;;;14.30
35582;BMP180;21687;48.900;9.188;2022-09-09T00:42:51;98063.00;;;14.30
35582;BMP180;21687;48.900;9.188;2022-09-09T00:45:52;98069.00;;;14.30
35582;BMP180;21687;48.900;9.188;2022-09-09T00:58:16;98062.00;;;14.50
35582;BMP180;21687;48.900;9.188;2022-09-09T01:03:56;98070.00;;;14.40
35582;BMP180;21687;48.900;9.188;2022-09-09T01:06:46;98078.00;;;14.50
35582;BMP180;21687;48.900;9.188;2022-09-09T01:09:51;98063.00;;;14.50
35582;BMP180;21687;48.900;9.188;2022-09-09T01:12:42;98064.00;;;14.50
35582;BMP180;21687;48.900;9.188;2022-09-09T01:15:31;98060.00;;;14.70
35582;BMP180;21687;48.900;9.188;2022-09-09T01:18:20;98056.00;;;14.70
35582;BMP180;21687;48.900;9.188;2022-09-09T01:27:10;98058.00;;;14.80
35582;BMP180;21687;48.900;9.188;2022-09-09T01:29:56;98057.00;;;14.80
35582;BMP180;21687;48.900;9.188;2022-09-09T01:32:52;98066.00;;;14.70
35582;BMP180;21687;48.900;9.188;2022-09-09T01:35:49;98075.00;;;14.80
35582;BMP180;21687;48.900;9.188;2022-09-09T01:38:40;98079.00;;;14.80
35582;BMP180;21687;48.900;9.188;2022-09-09T01:41:27;98085.00;;;14.80
35582;BMP180;21687;48.900;9.188;2022-09-09T01:44:15;98084.00;;;14.80
35582;BMP180;21687;48.900;9.188;2022-09-09T01:47:01;98090.00;;;14.70
35582;BMP180;21687;48.900;9.188;2022-09-09T01:49:48;98084.00;;;14.60
35582;BMP180;21687;48.900;9.188;2022-09-09T01:52:37;98091.00;;;14.60
35582;BMP180;21687;48.900;9.188;2022-09-09T01:55:45;98083.00;;;14.70
35582;BMP180;21687;48.900;9.188;2022-09-09T01:59:07;98084.00;;;14.60
35582;BMP180;21687;48.900;9.188;2022-09-09T02:02:09;98079.00;;;14.60
35582;BMP180;21687;48.900;9.188;2022-09-09T02:05:05;98080.00;;;14.60
35582;BMP180;21687;48.900;9.188;2022-09-09T02:08:00;98073.00;;;14.60
35582;BMP180;21687;48.900;9.188;2022-09-09T02:11:14;98074.00;;;14.60
35582;BMP180;21687;48.900;9.188;2022-09-09T02:14:10;98065.00;;;14.50
35582;BMP180;21687;48.900;9.188;2022-09-09T02:17:11;98069.00;;;14.50
35582;BMP180;21687;48.900;9.188;2022-09-09T02:20:06;98071.00;;;14.40
35582;BMP180;21687;48.900;9.188;2022-09-09T02:22:54;98078.00;;;14.50
35582;BMP180;21687;48.900;9.188;2022-09-09T02:25:42;98080.00;;;14.50
35582;BMP180;21687;48.900;9.188;2022-09-09T02:28:32;98079.00;;;14.40
35582;BMP180;21687;48.900;9.188;2022-09-09T02:31:22;98079.00;;;14.20
35582;BMP180;21687;48.900;9.188;2022-09-09T02:34:11;98082.00;;;14.10
35582;BMP180;21687;48.900;9.188;2022-09-09T02:36:59;98078.00;;;14.00
35582;BMP180;21687;48.900;9.188;2022-09-09T02:39:47;98086.00;;;13.90
35582;BMP180;21687;48.900;9.188;2022-09-09T02:42:39;98078.00;;;13.90
35582;BMP180;21687;48.900;9.188;2022-09-09T02:49:00;98085.00;;;13.60
35582;BMP180;21687;48.900;9.188;2022-09-09T02:52:11;98076.00;;;13.70
35582;BMP180;21687;48.900;9.188;2022-09-09T02:54:59;98067.00;;;13.60
35582;BMP180;21687;48.900;9.188;2022-09-09T02:57:50;98064.00;;;13.40
35582;BMP180;21687;48.900;9.188;2022-09-09T03:00:38;98058.00;;;13.40
35582;BMP180;21687;48.900;9.188;2022-09-09T03:03:25;98054.00;;;13.40
35582;BMP180;21687;48.900;9.188;2022-09-09T03:06:12;98052.00;;;13.50
35582;BMP180;21687;48.900;9.188;2022-09-09T03:08:59;98053.00;;;13.50
35582;BMP180;21687;48.900;9.188;2022-09-09T03:11:47;98044.00;;;13.40
35582;BMP180;21687;48.900;9.188;2022-09-09T03:14:35;98050.00;;;13.40
35582;BMP180;21687;48.900;9.188;2022-09-09T03:17:22;98051.00;;;13.40
35582;BMP180;21687;48.900;9.188;2022-09-09T03:20:08;98037.00;;;13.40
35582;BMP180;21687;48.900;9.188;2022-09-09T03:22:56;98034.00;;;13.30
35582;BMP180;21687;48.900;9.188;2022-09-09T03:25:52;98032.00;;;13.30
35582;BMP180;21687;48.900;9.188;2022-09-09T03:28:43;98045.00;;;13.20
35582;BMP180;21687;48.900;9.188;2022-09-09T03:31:30;98064.00;;;13.10
35582;BMP180;21687;48.900;9.188;2022-09-09T03:34:17;98064.00;;;13.10
35582;BMP180;21687;48.900;9.188;2022-09-09T03:37:03;98073.00;;;13.00
35582;BMP180;21687;48.900;9.188;2022-09-09T03:39:50;98065.00;;;13.10
35582;BMP180;21687;48.900;9.188;2022-09-09T03:42:37;98074.00;;;13.00
35582;BMP180;21687;48.900;9.188;2022-09-09T03:45:24;98073.00;;;12.90
35582;BMP180;21687;48.900;9.188;2022-09-09T03:48:10;98064.00;;;12.90
35582;BMP180;21687;48.900;9.188;2022-09-09T03:50:58;98078.00;;;13.00
35582;BMP180;21687;48.900;9.188;2022-09-09T03:53:46;98071.00;;;13.00
35582;BMP180;21687;48.900;9.188;2022-09-09T03:56:33;98073.00;;;13.10
35582;BMP180;21687;48.900;9.188;2022-09-09T03:59:20;98068.00;;;13.30
35582;BMP180;21687;48.900;9.188;2022-09-09T04:02:07;98064.00;;;13.40
35582;BMP180;21687;48.900;9.188;2022-09-09T04:04:54;98060.00;;;13.50
35582;BMP180;21687;48.900;9.188;2022-09-09T04:07:40;98063.00;;;13.60
35582;BMP180;21687;48.900;9.188;2022-09-09T04:10:27;98058.00;;;13.60
35582;BMP180;21687;48.900;9.188;2022-09-09T04:13:15;98061.00;;;13.80
35582;BMP180;21687;48.900;9.188;2022-09-09T04:16:04;98060.00;;;13.90
35582;BMP180;21687;48.900;9.188;2022-09-09T04:18:50;98070.00;;;13.90
35582;BMP180;21687;48.900;9.188;2022-09-09T04:21:37;98064.00;;;13.80
35582;BMP180;21687;48.900;9.188;2022-09-09T04:24:23;98068.00;;;13.80
35582;BMP180;21687;48.900;9.188;2022-09-09T04:27:10;98066.00;;;13.80
35582;BMP180;21687;48.900;9.188;2022-09-09T04:29:57;98072.00;;;13.80
35582;BMP180;21687;48.900;9.188;2022-09-09T04:32:43;98074.00;;;13.80
35582;BMP180;21687;48.900;9.188;2022-09-09T04:35:30;98073.00;;;13.90
35582;BMP180;21687;48.900;9.188;2022-09-09T04:38:17;98071.00;;;14.00
35582;BMP180;21687;48.900;9.188;2022-09-09T04:41:05;98069.00;;;14.10
35582;BMP180;21687;48.900;9.188;2022-09-09T04:43:52;98071.00;;;14.20
35582;BMP180;21687;48.900;9.188;2022-09-09T04:46:39;98076.00;;;14.40
35582;BMP180;21687;48.900;9.188;2022-09-09T04:49:27;98087.00;;;14.40
35582;BMP180;21687;48.900;9.188;2022-09-09T04:52:13;98095.00;;;14.50
35582;BMP180;21687;48.900;9.188;2022-09-09T04:55:04;98079.00;;;14.50
35582;BMP180;21687;48.900;9.188;2022-09-09T04:57:50;98087.00;;;14.60
35582;BMP180;21687;48.900;9.188;2022-09-09T05:00:37;98085.00;;;14.50
35582;BMP180;21687;48.900;9.188;2022-09-09T05:03:23;98090.00;;;14.40
35582;BMP180;21687;48.900;9.188;2022-09-09T05:06:12;98100.00;;;14.40
35582;BMP180;21687;48.900;9.188;2022-09-09T05:08:59;98100.00;;;14.40
35582;BMP180;21687;48.900;9.188;2022-09-09T05:11:46;98096.00;;;14.40
35582;BMP180;21687;48.900;9.188;2022-09-09T05:14:32;98103.00;;;14.40
35582;BMP180;21687;48.900;9.188;2022-09-09T05:17:19;98113.00;;;14.30
35582;BMP180;21687;48.900;9.188;2022-09-09T05:20:06;98107.00;;;14.40
35582;BMP180;21687;48.900;9.188;2022-09-09T05:22:54;98109.00;;;14.40
35582;BMP180;21687;48.900;9.188;2022-09-09T05:25:40;98109.00;;;14.60
35582;BMP180;21687;48.900;9.188;2022-09-09T05:28:28;98112.00;;;14.60
35582;BMP180;21687;48.900;9.188;2022-09-09T05:31:16;98120.00;;;14.70
35582;BMP180;21687;48.900;9.188;2022-09-09T05:34:03;98117.00;;;14.80
35582;BMP180;21687;48.900;9.188;2022-09-09T05:36:50;98117.00;;;14.90
35582;BMP180;21687;48.900;9.188;2022-09-09T05:39:38;98111.00;;;15.00
35582;BMP180;21687;48.900;9.188;2022-09-09T05:42:25;98115.00;;;15.00
35582;BMP180;21687;48.900;9.188;2022-09-09T05:45:15;98108.00;;;15.10
35582;BMP180;21687;48.900;9.188;2022-09-09T05:48:02;98117.00;;;15.20
35582;BMP180;21687;48.900;9.188;2022-09-09T05:50:53;98125.00;;;15.30
35582;BMP180;21687;48.900;9.188;2022-09-09T05:53:40;98130.00;;;15.30
35582;BMP180;21687;48.900;9.188;2022-09-09T05:56:30;98121.00;;;15.40
35582;BMP180;21687;48.900;9.188;2022-09-09T05:59:16;98121.00;;;15.40
35582;BMP180;21687;48.900;9.188;2022-09-09T06:02:03;98132.00;;;15.50
35582;BMP180;21687;48.900;9.188;2022-09-09T06:04:49;98129.00;;;15.70
35582;BMP180;21687;48.900;9.188;2022-09-09T06:07:35;98138.00;;;15.70
35582;BMP180;21687;48.900;9.188;2022-09-09T06:10:22;98130.00;;;15.90
35582;BMP180;21687;48.900;9.188;2022-09-09T06:13:09;98136.00;;;16.00
35582;BMP180;21687;48.900;9.188;2022-09-09T06:15:56;98136.00;;;16.10
35582;BMP180;21687;48.900;9.188;2022-09-09T06:18:43;98128.00;;;16.00
35582;BMP180;21687;48.900;9.188;2022-09-09T06:21:31;98130.00;;;16.20
35582;BMP180;21687;48.900;9.188;2022-09-09T06:24:19;98125.00;;;16.10
35582;BMP180;21687;48.900;9.188;2022-09-09T06:27:06;98127.00;;;16.30
35582;BMP180;21687;48.900;9.188;2022-09-09T06:29:52;98135.00;;;16.40
35582;BMP180;21687;48.900;9.188;2022-09-09T06:32:39;98139.00;;;16.50
35582;BMP180;21687;48.900;9.188;2022-09-09T06:35:25;98144.00;;;16.60
35582;BMP180;21687;48.900;9.188;2022-09-09T06:38:12;98140.00;;;16.70
35582;BMP180;21687;48.900;9.188;2022-09-09T06:41:00;98143.00;;;16.80
35582;BMP180;21687;48.900;9.188;2022-09-09T06:43:47;98146.00;;;16.90
35582;BMP180;21687;48.900;9.188;2022-09-09T06:46:34;98144.00;;;16.90
35582;BMP180;21687;48.900;9.188;2022-09-09T06:49:21;98147.00;;;16.80
35582;BMP180;21687;48.900;9.188;2022-09-09T06:52:08;98147.00;;;16.90
35582;BMP180;21687;48.900;9.188;2022-09-09T06:54:55;98142.00;;;17.00
35582;BMP180;21687;48.900;9.188;2022-09-09T06:57:41;98147.00;;;17.30
35582;BMP180;21687;48.900;9.188;2022-09-09T07:00:29;98153.00;;;17.50
35582;BMP180;21687;48.900;9.188;2022-09-09T07:03:16;98154.00;;;17.70
35582;BMP180;21687;48.900;9.188;2022-09-09T07:06:03;98146.00;;;17.70
35582;BMP180;21687;48.900;9.188;2022-09-09T07:08:51;98144.00;;;17.80
35582;BMP180;21687;48.900;9.188;2022-09-09T07:11:46;98132.00;;;17.70
35582;BMP180;21687;48.900;9.188;2022-09-09T07:14:33;98140.00;;;17.80
35582;BMP180;21687;48.900;9.188;2022-09-09T07:17:22;98138.00;;;17.80
35582;BMP180;21687;48.900;9.188;2022-09-09T07:20:09;98145.00;;;17.70
35582;BMP180;21687;48.900;9.188;2022-09-09T07:22:55;98148.00;;;17.90
35582;BMP180;21687;48.900;9.188;2022-09-09T07:25:45;98151.00;;;17.80
35582;BMP180;21687;48.900;9.188;2022-09-09T07:28:32;98141.00;;;17.90
35582;BMP180;21687;48.900;9.188;2022-09-09T07:31:21;98148.00;;;18.10
35582;BMP180;21687;48.900;9.188;2022-09-09T07:34:08;98141.00;;;18.00
35582;BMP180;21687;48.900;9.188;2022-09-09T07:36:54;98155.00;;;18.10
35582;BMP180;21687;48.900;9.188;2022-09-09T07:39:43;98151.00;;;18.10
35582;BMP180;21687;48.900;9.188;2022-09-09T07:42:30;98154.00;;;17.80
35582;BMP180;21687;48.900;9.188;2022-09-09T07:45:16;98147.00;;;17.80
35582;BMP180;21687;48.900;9.188;2022-09-09T07:48:03;98149.00;;;18.00
35582;BMP180;21687;48.900;9.188;2022-09-09T07:50:50;98154.00;;;18.10
35582;BMP180;21687;48.900;9.188;2022-09-09T07:53:40;98145.00;;;18.00
35582;BMP180;21687;48.900;9.188;2022-09-09T07:56:27;98156.00;;;18.10
35582;BMP180;21687;48.900;9.188;2022-09-09T07:59:14;98160.00;;;18.20
35582;BMP180;21687;48.900;9.188;2022-09-09T08:02:01;98165.00;;;18.50
35582;BMP180;21687;48.900;9.188;2022-09-09T08:04:48;98165.00;;;18.70
35582;BMP180;21687;48.900;9.188;2022-09-09T08:07:34;98155.00;;;19.00
35582;BMP180;21687;48.900;9.188;2022-09-09T08:10:21;98144.00;;;19.10
35582;BMP180;21687;48.900;9.188;2022-09-09T08:13:08;98154.00;;;19.20
35582;BMP180;21687;48.900;9.188;2022-09-09T08:15:55;98151.00;;;19.30
35582;BMP180;21687;48.900;9.188;2022-09-09T08:18:41;98160.00;;;19.30
35582;BMP180;21687;48.900;9.188;2022-09-09T08:21:29;98169.00;;;19.10
35582;BMP180;21687;48.900;9.188;2022-09-09T08:24:16;98168.00;;;18.90
35582;BMP180;21687;48.900;9.188;2022-09-09T08:27:03;98168.00;;;18.90
35582;BMP180;21687;48.900;9.188;2022-09-09T08:29:49;98175.00;;;18.80
35582;BMP180;21687;48.900;9.188;2022-09-09T08:32:36;98183.00;;;18.90
35582;BMP180;21687;48.900;9.188;2022-09-09T08:35:22;98189.00;;;19.10
35582;BMP180;21687;48.900;9.188;2022-09-09T08:38:09;98179.00;;;19.30
35582;BMP180;21687;48.900;9.188;2022-09-09T08:41:01;98184.00;;;19.40
35582;BMP180;21687;48.900;9.188;2022-09-09T08:43:51;98179.00;;;19.60
35582;BMP180;21687;48.900;9.188;2022-09-09T08:52:45;98158.00;;;19.70
35582;BMP180;21687;48.900;9.188;2022-09-09T08:55:56;98163.00;;;19.80
35582;BMP180;21687;48.900;9.188;2022-09-09T08:58:49;98164.00;;;19.80
35582;BMP180;21687;48.900;9.188;2022-09-09T09:02:07;98160.00;;;19.70
35582;BMP180;21687;48.900;9.188;2022-09-09T09:05:19;98168.00;;;19.90
35582;BMP180;21687;48.900;9.188;2022-09-09T09:08:36;98167.00;;;20.20
35582;BMP180;21687;48.900;9.188;2022-09-09T09:11:26;98163.00;;;20.50
35582;BMP180;21687;48.900;9.188;2022-09-09T09:14:20;98168.00;;;20.90
35582;BMP180;21687;48.900;9.188;2022-09-09T09:17:14;98162.00;;;21.30
35582;BMP180;21687;48.900;9.188;2022-09-09T09:20:05;98170.00;;;21.50
35582;BMP180;21687;48.900;9.188;2022-09-09T09:22:53;98170.00;;;21.30
35582;BMP180;21687;48.900;9.188;2022-09-09T09:25:43;98168.00;;;20.90
35582;BMP180;21687;48.900;9.188;2022-09-09T09:28:32;98167.00;;;20.70
35582;BMP180;21687;48.900;9.188;2022-09-09T09:31:20;98162.00;;;20.50
35582;BMP180;21687;48.900;9.188;2022-09-09T09:34:08;98159.00;;;20.30
35582;BMP180;21687;48.900;9.188;2022-09-09T09:36:59;98162.00;;;20.20
35582;BMP180;21687;48.900;9.188;2022-09-09T09:39:48;98165.00;;;20.00
35582;BMP180;21687;48.900;9.188;2022-09-09T09:42:35;98164.00;;;20.00
35582;BMP180;21687;48.900;9.188;2022-09-09T09:45:42;98153.00;;;20.20
35582;BMP180;21687;48.900;9.188;2022-09-09T09:48:30;98166.00;;;20.40
35582;BMP180;21687;48.900;9.188;2022-09-09T09:51:20;98147.00;;;20.70
35582;BMP180;21687;48.900;9.188;2022-09-09T09:54:21;98150.00;;;20.90
35582;BMP180;21687;48.900;9.188;2022-09-09T09:57:14;98138.00;;;21.00
35582;BMP180;21687;48.900;9.188;2022-09-09T10:00:22;98137.00;;;21.00
35582;BMP180;21687;48.900;9.188;2022-09-09T10:03:38;98143.00;;;21.20
35582;BMP180;21687;48.900;9.188;2022-09-09T10:06:36;98146.00;;;21.20
35582;BMP180;21687;48.900;9.188;2022-09-09T10:09:29;98138.00;;;21.20
35582;BMP180;21687;48.900;9.188;2022-09-09T10:15:33;98133.00;;;21.40
35582;BMP180;21687;48.900;9.188;2022-09-09T10:36:33;98136.00;;;22.00
35582;BMP180;21687;48.900;9.188;2022-09-09T10:39:39;98147.00;;;22.40
35582;BMP180;21687;48.900;9.188;2022-09-09T10:42:31;98144.00;;;21.90
35582;BMP180;21687;48.900;9.188;2022-09-09T10:45:32;98147.00;;;21.60
35582;BMP180;21687;48.900;9.188;2022-09-09T10:48:34;98156.00;;;21.40
35582;BMP180;21687;48.900;9.188;2022-09-09T10:57:36;98145.00;;;21.10
35582;BMP180;21687;48.900;9.188;2022-09-09T11:00:25;98152.00;;;21.30
35582;BMP180;21687;48.900;9.188;2022-09-09T11:03:23;98157.00;;;21.20
35582;BMP180;21687;48.900;9.188;2022-09-09T11:06:22;98161.00;;;20.80
35582;BMP180;21687;48.900;9.188;2022-09-09T11:09:17;98167.00;;;20.60
35582;BMP180;21687;48.900;9.188;2022-09-09T11:12:06;98156.00;;;20.30
35582;BMP180;21687;48.900;9.188;2022-09-09T11:15:01;98152.00;;;20.20
35582;BMP180;21687;48.900;9.188;2022-09-09T11:17:54;98158.00;;;20.40
35582;BMP180;21687;48.900;9.188;2022-09-09T11:20:44;98171.00;;;19.90
35582;BMP180;21687;48.900;9.188;2022-09-09T11:23:41;98173.00;;;19.30
35582;BMP180;21687;48.900;9.188;2022-09-09T11:26:37;98190.00;;;18.60
35582;BMP180;21687;48.900;9.188;2022-09-09T11:29:45;98189.00;;;17.50
35582;BMP180;21687;48.900;9.188;2022-09-09T11:38:53;98205.00;;;16.50
35582;BMP180;21687;48.900;9.188;2022-09-09T11:41:43;98186.00;;;16.40
35582;BMP180;21687;48.900;9.188;2022-09-09T11:44:34;98190.00;;;16.40
35582;BMP180;21687;48.900;9.188;2022-09-09T11:47:26;98184.00;;;16.50
35582;BMP180;21687;48.900;9.188;2022-09-09T11:53:22;98180.00;;;16.80
35582;BMP180;21687;48.900;9.188;2022-09-09T11:56:25;98169.00;;;17.00
35582;BMP180;21687;48.900;9.188;2022-09-09T11:59:32;98159.00;;;17.20
35582;BMP180;21687;48.900;9.188;2022-09-09T12:02:24;98161.00;;;17.50
35582;BMP180;21687;48.900;9.188;2022-09-09T12:05:13;98150.00;;;17.90
35582;BMP180;21687;48.900;9.188;2022-09-09T12:08:05;98152.00;;;18.10
35582;BMP180;21687;48.900;9.188;2022-09-09T12:10:57;98134.00;;;18.30
35582;BMP180;21687;48.900;9.188;2022-09-09T12:13:53;98135.00;;;18.50
35582;BMP180;21687;48.900;9.188;2022-09-09T12:16:40;98127.00;;;18.60
35582;BMP180;21687;48.900;9.188;2022-09-09T12:19:27;98132.00;;;18.80
35582;BMP180;21687;48.900;9.188;2022-09-09T12:25:23;98137.00;;;19.30
35582;BMP180;21687;48.900;9.188;2022-09-09T12:28:39;98142.00;;;19.70
35582;BMP180;21687;48.900;9.188;2022-09-09T12:37:37;98127.00;;;20.20
35582;BMP180;21687;48.900;9.188;2022-09-09T12:40:27;98128.00;;;20.30
35582;BMP180;21687;48.900;9.188;2022-09-09T12:43:19;98138.00;;;20.40
35582;BMP180;21687;48.900;9.188;2022-09-09T12:46:11;98137.00;;;20.40
35582;BMP180;21687;48.900;9.188;2022-09-09T12:49:01;98140.00;;;20.50
35582;BMP180;21687;48.900;9.188;2022-09-09T12:51:47;98126.00;;;20.50
35582;BMP180;21687;48.900;9.188;2022-09-09T12:54:36;98125.00;;;20.30
35582;BMP180;21687;48.900;9.188;2022-09-09T12:57:24;98119.00;;;20.40
35582;BMP180;21687;48.900;9.188;2022-09-09T13:00:23;98113.00;;;20.40
35582;BMP180;21687;48.900;9.188;2022-09-09T13:03:18;98113.00;;;20.50
35582;BMP180;21687;48.900;9.188;2022-09-09T13:06:18;98119.00;;;20.50
35582;BMP180;21687;48.900;9.188;2022-09-09T13:09:07;98120.00;;;20.70
35582;BMP180;21687;48.900;9.188;2022-09-09T13:11:56;98118.00;;;21.00
35582;BMP180;21687;48.900;9.188;2022-09-09T13:14:47;98114.00;;;21.10
35582;BMP180;21687;48.900;9.188;2022-09-09T13:17:34;98120.00;;;21.10
35582;BMP180;21687;48.900;9.188;2022-09-09T13:20:23;98113.00;;;21.20
35582;BMP180;21687;48.900;9.188;2022-09-09T13:23:12;98113.00;;;21.40
35582;BMP180;21687;48.900;9.188;2022-09-09T13:26:01;98113.00;;;21.70
35582;BMP180;21687;48.900;9.188;2022-09-09T13:28:48;98110.00;;;21.70
35582;BMP180;21687;48.900;9.188;2022-09-09T13:31:37;98096.00;;;22.00
35582;BMP180;21687;48.900;9.188;2022-09-09T13:34:31;98099.00;;;22.30
35582;BMP180;21687;48.900;9.188;2022-09-09T13:37:37;98088.00;;;22.60
35582;BMP180;21687;48.900;9.188;2022-09-09T13:40:25;98091.00;;;22.50
35582;BMP180;21687;48.900;9.188;2022-09-09T13:43:20;98094.00;;;22.70
35582;BMP180;21687;48.900;9.188;2022-09-09T13:46:33;98090.00;;;22.50
35582;BMP180;21687;48.900;9.188;2022-09-09T13:49:22;98083.00;;;22.40
35582;BMP180;21687;48.900;9.188;2022-09-09T13:52:12;98079.00;;;22.60
35582;BMP180;21687;48.900;9.188;2022-09-09T13:54:59;98076.00;;;22.40
35582;BMP180;21687;48.900;9.188;2022-09-09T13:58:03;98067.00;;;22.30
35582;BMP180;21687;48.900;9.188;2022-09-09T14:00:52;98077.00;;;22.40
35582;BMP180;21687;48.900;9.188;2022-09-09T14:03:39;98074.00;;;22.60
35582;BMP180;21687;48.900;9.188;2022-09-09T14:06:26;98086.00;;;22.50
35582;BMP180;21687;48.900;9.188;2022-09-09T14:09:15;98078.00;;;22.60
35582;BMP180;21687;48.900;9.188;2022-09-09T14:12:02;98087.00;;;22.30
35582;BMP180;21687;48.900;9.188;2022-09-09T14:14:48;98080.00;;;22.20
35582;BMP180;21687;48.900;9.188;2022-09-09T14:17:36;98085.00;;;22.10
35582;BMP180;21687;48.900;9.188;2022-09-09T14:20:22;98091.00;;;21.70
35582;BMP180;21687;48.900;9.188;2022-09-09T14:23:11;98089.00;;;21.70
35582;BMP180;21687;48.900;9.188;2022-09-09T14:25:58;98093.00;;;21.70
35582;BMP180;21687;48.900;9.188;2022-09-09T14:28:45;98072.00;;;21.70
35582;BMP180;21687;48.900;9.188;2022-09-09T14:31:32;98070.00;;;21.90
35582;BMP180;21687;48.900;9.188;2022-09-09T14:34:18;98080.00;;;21.80
35582;BMP180;21687;48.900;9.188;2022-09-09T14:37:06;98076.00;;;22.00
35582;BMP180;21687;48.900;9.188;2022-09-09T14:39:52;98063.00;;;22.00
35582;BMP180;21687;48.900;9.188;2022-09-09T14:42:40;98074.00;;;22.00
35582;BMP180;21687;48.900;9.188;2022-09-09T14:45:27;98072.00;;;22.00
35582;BMP180;21687;48.900;9.188;2022-09-09T14:48:15;98079.00;;;22.10
35582;BMP180;21687;48.900;9.188;2022-09-09T14:51:06;98071.00;;;21.80
35582;BMP180;21687;48.900;9.188;2022-09-09T14:53:55;98076.00;;;21.90
35582;BMP180;21687;48.900;9.188;2022-09-09T14:56:42;98079.00;;;21.90
35582;BMP180;21687;48.900;9.188;2022-09-09T14:59:29;98086.00;;;21.80
35582;BMP180;21687;48.900;9.188;2022-09-09T15:02:16;98083.00;;;21.70
35582;BMP180;21687;48.900;9.188;2022-09-09T15:05:03;98090.00;;;21.60
35582;BMP180;21687;48.900;9.188;2022-09-09T15:07:50;98093.00;;;21.70
35582;BMP180;21687;48.900;9.188;2022-09-09T15:10:37;98094.00;;;21.60
35582;BMP180;21687;48.900;9.188;2022-09-09T15:13:25;98103.00;;;21.50
35582;BMP180;21687;48.900;9.188;2022-09-09T15:16:17;98113.00;;;21.30
35582;BMP180;21687;48.900;9.188;2022-09-09T15:19:03;98111.00;;;21.00
35582;BMP180;21687;48.900;9.188;2022-09-09T15:21:50;98111.00;;;20.90
35582;BMP180;21687;48.900;9.188;2022-09-09T15:24:36;98108.00;;;21.00
35582;BMP180;21687;48.900;9.188;2022-09-09T15:27:23;98106.00;;;21.00
35582;BMP180;21687;48.900;9.188;2022-09-09T15:30:10;98097.00;;;20.80
35582;BMP180;21687;48.900;9.188;2022-09-09T15:32:57;98090.00;;;20.80
35582;BMP180;21687;48.900;9.188;2022-09-09T15:35:43;98088.00;;;20.90
35582;BMP180;21687;48.900;9.188;2022-09-09T15:38:31;98079.00;;;21.10
35582;BMP180;21687;48.900;9.188;2022-09-09T15:41:19;98086.00;;;21.20
35582;BMP180;21687;48.900;9.188;2022-09-09T15:44:06;98084.00;;;21.10
35582;BMP180;21687;48.900;9.188;2022-09-09T15:46:53;98087.00;;;21.10
35582;BMP180;21687;48.900;9.188;2022-09-09T15:49:40;98091.00;;;20.90
35582;BMP180;21687;48.900;9.188;2022-09-09T15:52:26;98106.00;;;20.80
35582;BMP180;21687;48.900;9.188;2022-09-09T15:55:13;98099.00;;;20.50
35582;BMP180;21687;48.900;9.188;2022-09-09T15:57:59;98094.00;;;20.30
35582;BMP180;21687;48.900;9.188;2022-09-09T16:00:47;98105.00;;;20.20
35582;BMP180;21687;48.900;9.188;2022-09-09T16:03:41;98108.00;;;20.10
35582;BMP180;21687;48.900;9.188;2022-09-09T16:06:29;98108.00;;;20.00
35582;BMP180;21687;48.900;9.188;2022-09-09T16:09:16;98105.00;;;19.90
35582;BMP180;21687;48.900;9.188;2022-09-09T16:12:03;98117.00;;;19.80
35582;BMP180;21687;48.900;9.188;2022-09-09T16:14:54;98121.00;;;19.80
35582;BMP180;21687;48.900;9.188;2022-09-09T16:17:41;98124.00;;;19.70
35582;BMP180;21687;48.900;9.188;2022-09-09T16:20:27;98130.00;;;19.70
35582;BMP180;21687;48.900;9.188;2022-09-09T16:23:14;98173.00;;;19.60
35582;BMP180;21687;48.900;9.188;2022-09-09T16:26:01;98175.00;;;18.90
35582;BMP180;21687;48.900;9.188;2022-09-09T16:28:48;98164.00;;;18.30
35582;BMP180;21687;48.900;9.188;2022-09-09T16:31:34;98176.00;;;17.90
35582;BMP180;21687;48.900;9.188;2022-09-09T16:34:21;98181.00;;;17.60
35582;BMP180;21687;48.900;9.188;2022-09-09T16:37:08;98191.00;;;17.20
35582;BMP180;21687;48.900;9.188;2022-09-09T16:39:54;98187.00;;;16.50
35582;BMP180;21687;48.900;9.188;2022-09-09T16:42:41;98182.00;;;16.10
35582;BMP180;21687;48.900;9.188;2022-09-09T16:45:28;98179.00;;;15.70
35582;BMP180;21687;48.900;9.188;2022-09-09T16:48:15;98189.00;;;15.50
35582;BMP180;21687;48.900;9.188;2022-09-09T16:51:06;98190.00;;;15.10
35582;BMP180;21687;48.900;9.188;2022-09-09T16:53:55;98188.00;;;14.80
35582;BMP180;21687;48.900;9.188;2022-09-09T16:56:45;98189.00;;;14.60
35582;BMP180;21687;48.900;9.188;2022-09-09T16:59:32;98198.00;;;14.30
35582;BMP180;21687;48.900;9.188;2022-09-09T17:02:21;98191.00;;;14.10
35582;BMP180;21687;48.900;9.188;2022-09-09T17:05:08;98173.00;;;14.00
35582;BMP180;21687;48.900;9.188;2022-09-09T17:07:56;98179.00;;;14.00
35582;BMP180;21687;48.900;9.188;2022-09-09T17:10:43;98165.00;;;14.00
35582;BMP180;21687;48.900;9.188;2022-09-09T17:13:31;98172.00;;;13.90
35582;BMP180;21687;48.900;9.188;2022-09-09T17:16:19;98173.00;;;14.10
35582;BMP180;21687;48.900;9.188;2022-09-09T17:19:10;98167.00;;;14.10
35582;BMP180;21687;48.900;9.188;2022-09-09T17:21:56;98172.00;;;13.90
35582;BMP180;21687;48.900;9.188;2022-09-09T17:24:45;98166.00;;;13.90
35582;BMP180;21687;48.900;9.188;2022-09-09T17:27:32;98163.00;;;13.90
35582;BMP180;21687;48.900;9.188;2022-09-09T17:30:19;98159.00;;;13.90
35582;BMP180;21687;48.900;9.188;2022-09-09T17:33:05;98157.00;;;14.00
35582;BMP180;21687;48.900;9.188;2022-09-09T17:35:53;98156.00;;;14.10
35582;BMP180;21687;48.900;9.188;2022-09-09T17:38:41;98152.00;;;14.00
35582;BMP180;21687;48.900;9.188;2022-09-09T17:41:37;98155.00;;;14.00
35582;BMP180;21687;48.900;9.188;2022-09-09T17:44:24;98157.00;;;13.90
35582;BMP180;21687;48.900;9.188;2022-09-09T17:47:10;98165.00;;;14.00
35582;BMP180;21687;48.900;9.188;2022-09-09T17:49:57;98167.00;;;14.00